Terminal Aerodrome Forecast
Issued by NWS

Home | Current Version | Previous Version | Text Only | Print | Product List | Glossary On
Versions: 1 2 3 4 5 6 7 8 9 10 11 12 13 14 15
000
FTUS45 KABQ 231140
TAFTCC
TAF
KTCC 231140Z 2312/2412 26010KT P6SM SCT200
     FM231600 26025G35KT P6SM SKC
     FM231800 26035G45KT P6SM SKC
     FM240100 29015KT P6SM SKC
     FM240700 30010KT P6SM SKC=

USA.gov is the U.S. government's official web portal to all federal, state and local government web resources and services.